createdAt,value
2022-08-14T00:04:44.632Z,13.15
2022-08-14T00:10:49.971Z,12.93
2022-08-14T00:16:41.517Z,9.90
2022-08-14T00:22:13.617Z,8.95
2022-08-14T00:28:15.096Z,8.82
2022-08-14T00:33:54.616Z,7.10
2022-08-14T00:39:40.711Z,6.63
2022-08-14T00:45:23.605Z,7.22
2022-08-14T00:51:01.599Z,6.82
2022-08-14T00:56:39.617Z,7.03
2022-08-14T01:02:19.998Z,5.35
2022-08-14T01:07:56.992Z,5.63
2022-08-14T01:13:42.814Z,5.88
2022-08-14T01:19:37.585Z,6.13
2022-08-14T01:25:15.576Z,4.93
2022-08-14T01:30:56.567Z,5.03
2022-08-14T01:36:35.450Z,5.00
2022-08-14T01:42:31.614Z,5.30
2022-08-14T01:48:13.611Z,3.97
2022-08-14T01:53:54.707Z,4.20
2022-08-14T01:59:39.560Z,4.72
2022-08-14T02:05:22.535Z,4.47
2022-08-14T02:11:20.269Z,4.43
2022-08-14T02:17:01.559Z,4.22
2022-08-14T02:22:47.203Z,5.22
2022-08-14T02:28:57.267Z,6.57
2022-08-14T02:34:26.355Z,6.38
2022-08-14T02:40:12.520Z,7.60
2022-08-14T02:45:49.516Z,8.95
2022-08-14T02:51:30.523Z,8.23
2022-08-14T02:57:13.922Z,8.15
2022-08-14T03:02:58.562Z,9.82
2022-08-14T03:08:39.512Z,9.70
2022-08-14T03:14:22.495Z,10.32
2022-08-14T03:19:59.542Z,9.75
2022-08-14T03:25:40.746Z,9.32
2022-08-14T03:31:17.502Z,10.15
2022-08-14T03:37:52.043Z,10.15
2022-08-14T03:42:52.465Z,10.00
2022-08-14T03:48:40.454Z,9.48
2022-08-14T03:54:20.693Z,8.90
2022-08-14T03:59:58.471Z,10.13
2022-08-14T04:05:43.461Z,11.15
2022-08-14T04:11:25.449Z,11.20
2022-08-14T04:17:03.469Z,10.95
2022-08-14T04:22:40.426Z,11.75
2022-08-14T04:29:01.858Z,11.57
2022-08-14T04:34:20.925Z,12.07
2022-08-14T04:40:22.418Z,11.05
2022-08-14T04:46:04.445Z,11.65
2022-08-14T04:51:46.857Z,10.45
2022-08-14T04:57:32.417Z,11.60
2022-08-14T05:03:10.424Z,10.50
2022-08-14T05:08:56.815Z,11.05
2022-08-14T05:14:53.352Z,11.63
2022-08-14T05:21:56.781Z,11.85
2022-08-14T05:26:30.402Z,10.00
2022-08-14T05:32:07.412Z,10.68
2022-08-14T05:37:52.483Z,11.38
2022-08-14T05:43:40.785Z,12.55
2022-08-14T05:49:18.372Z,10.57
2022-08-14T05:54:55.371Z,11.07
2022-08-14T06:00:39.546Z,11.10
2022-08-14T06:06:16.432Z,10.57
2022-08-14T06:11:53.442Z,13.00
2022-08-14T06:17:45.887Z,10.88
2022-08-14T06:23:23.348Z,9.65
2022-08-14T06:29:01.356Z,9.00
2022-08-14T06:35:03.559Z,13.77
2022-08-14T06:40:40.173Z,11.02
2022-08-14T06:46:32.382Z,12.82
2022-08-14T06:52:16.321Z,12.65
2022-08-14T06:57:55.336Z,10.30
2022-08-14T07:03:49.352Z,12.60
2022-08-14T07:15:22.331Z,9.80
2022-08-14T07:27:36.170Z,10.88
2022-08-14T07:33:17.313Z,10.13
2022-08-14T07:38:58.305Z,11.18
2022-08-14T07:44:46.263Z,11.27
2022-08-14T07:50:34.601Z,12.98
2022-08-14T07:56:36.687Z,11.45
2022-08-14T08:02:18.590Z,13.98
2022-08-14T08:07:57.302Z,13.20
2022-08-14T08:13:35.270Z,15.02
2022-08-14T08:19:18.278Z,13.48
2022-08-14T08:24:55.273Z,13.80
2022-08-14T08:30:36.275Z,15.23
2022-08-14T08:36:18.881Z,18.77
2022-08-14T08:41:59.238Z,15.32
2022-08-14T08:47:36.242Z,16.67
2022-08-14T08:53:16.233Z,11.77
2022-08-14T08:58:53.253Z,11.82
2022-08-14T09:04:34.233Z,12.43
2022-08-14T09:10:14.261Z,13.88
2022-08-14T09:16:18.739Z,13.35
2022-08-14T09:21:56.209Z,11.38
2022-08-14T09:27:34.204Z,11.35
2022-08-14T09:33:33.213Z,15.48
2022-08-14T09:39:23.396Z,17.63
2022-08-14T09:45:17.224Z,17.48
2022-08-14T09:56:36.217Z,15.27
2022-08-14T10:02:15.252Z,19.02
2022-08-14T10:08:04.165Z,20.27
2022-08-14T10:13:53.097Z,21.27
2022-08-14T10:19:35.847Z,22.92
2022-08-14T10:25:13.164Z,25.95
2022-08-14T10:30:55.249Z,24.55
2022-08-14T10:36:45.689Z,22.35
2022-08-14T10:42:27.181Z,22.80
2022-08-14T10:48:09.481Z,20.05
2022-08-14T10:53:53.186Z,18.30
2022-08-14T10:59:35.556Z,17.25
2022-08-14T11:05:21.214Z,18.98
2022-08-14T11:11:01.227Z,14.30
2022-08-14T11:16:39.149Z,14.75
2022-08-14T11:23:03.186Z,15.25
2022-08-14T11:28:19.101Z,14.98
2022-08-14T11:33:56.143Z,11.25
2022-08-14T11:39:37.146Z,12.35
2022-08-14T11:45:23.706Z,11.27
2022-08-14T11:51:03.214Z,10.35
2022-08-14T11:56:49.276Z,9.75
2022-08-14T12:03:00.962Z,9.50
2022-08-14T12:08:30.021Z,10.20
2022-08-14T12:14:07.119Z,9.52
2022-08-14T12:20:03.255Z,10.30
2022-08-14T12:25:40.139Z,10.13
2022-08-14T12:31:27.175Z,8.45
2022-08-14T12:37:16.218Z,9.40
2022-08-14T12:42:56.724Z,9.23
2022-08-14T12:48:39.083Z,13.85
2022-08-14T12:54:29.329Z,11.43
2022-08-14T13:00:24.156Z,9.52
2022-08-14T13:06:03.271Z,10.82
2022-08-14T13:11:58.482Z,9.25
2022-08-14T13:17:38.121Z,9.07
2022-08-14T13:23:16.078Z,9.18
2022-08-14T13:29:02.390Z,9.05
2022-08-14T13:34:45.556Z,8.65
2022-08-14T13:46:05.068Z,8.45
2022-08-14T13:51:52.992Z,12.60
2022-08-14T13:57:31.048Z,10.75
2022-08-14T14:03:09.040Z,9.85
2022-08-14T14:08:50.018Z,10.13
2022-08-14T14:15:04.939Z,9.82
2022-08-14T14:21:17.483Z,9.82
2022-08-14T14:27:40.608Z,9.88
2022-08-14T14:33:46.782Z,10.20
2022-08-14T14:39:08.071Z,10.35
2022-08-14T14:44:15.954Z,10.07
2022-08-14T14:49:31.907Z,10.43
2022-08-14T14:54:51.255Z,9.27
2022-08-14T14:59:55.808Z,10.02
2022-08-14T15:04:59.694Z,11.07
2022-08-14T15:10:06.613Z,12.90
2022-08-14T15:15:30.271Z,10.43
2022-08-14T15:20:37.429Z,13.30
2022-08-14T15:25:52.286Z,8.80
2022-08-14T15:30:57.781Z,6.70
2022-08-14T15:36:04.481Z,6.82
2022-08-14T15:41:22.107Z,5.75
2022-08-14T15:46:43.310Z,6.28
2022-08-14T15:51:50.995Z,5.63
2022-08-14T15:57:00.734Z,5.45
2022-08-14T16:02:04.532Z,7.97
2022-08-14T16:07:12.831Z,13.02
2022-08-14T16:12:20.018Z,7.80
2022-08-14T16:17:43.997Z,6.63
2022-08-14T16:22:57.332Z,6.28
2022-08-14T16:28:03.583Z,5.78
2022-08-14T16:33:28.032Z,6.63
2022-08-14T16:38:45.535Z,5.60
2022-08-14T16:44:04.558Z,5.90
2022-08-14T16:49:10.903Z,7.13
2022-08-14T16:54:34.162Z,8.77
2022-08-14T16:59:52.739Z,11.53
2022-08-14T17:05:17.503Z,6.53
2022-08-14T17:10:28.208Z,7.97
2022-08-14T17:15:36.757Z,7.63
2022-08-14T17:21:00.538Z,8.30
2022-08-14T17:26:09.216Z,8.73
2022-08-14T17:31:16.792Z,8.18
2022-08-14T17:36:24.287Z,8.13
2022-08-14T17:41:32.849Z,7.80
2022-08-14T17:46:50.379Z,8.68
2022-08-14T17:52:07.305Z,9.60
2022-08-14T17:57:14.149Z,9.63
2022-08-14T18:02:22.600Z,10.23
2022-08-14T18:08:00.273Z,25.70
2022-08-14T18:13:01.770Z,9.85
2022-08-14T18:18:11.116Z,11.18
2022-08-14T18:23:16.082Z,11.07
2022-08-14T18:28:48.564Z,9.17
2022-08-14T18:33:58.881Z,8.75
2022-08-14T18:39:25.128Z,9.43
2022-08-14T18:45:12.864Z,9.20
2022-08-14T18:50:27.402Z,9.65
2022-08-14T18:55:54.491Z,9.97
2022-08-14T19:01:28.002Z,10.63
2022-08-14T19:06:50.149Z,11.02
2022-08-14T19:12:07.541Z,9.13
2022-08-14T19:17:42.117Z,9.38
2022-08-14T19:22:51.390Z,9.15
2022-08-14T19:28:31.010Z,11.40
2022-08-14T19:33:53.663Z,19.90
2022-08-14T19:39:00.410Z,9.05
2022-08-14T19:44:11.616Z,9.95
2022-08-14T19:49:23.179Z,11.18
2022-08-14T19:54:40.787Z,11.57
2022-08-14T20:05:04.013Z,10.98
2022-08-14T20:11:06.879Z,10.35
2022-08-14T20:15:47.228Z,16.75
2022-08-14T20:20:52.159Z,9.97
2022-08-14T20:25:58.877Z,9.02
2022-08-14T20:31:14.654Z,11.70
2022-08-14T20:36:25.987Z,11.85
2022-08-14T20:41:34.350Z,11.00
2022-08-14T20:46:42.415Z,10.57
2022-08-14T20:51:58.449Z,9.88
2022-08-14T20:57:09.640Z,10.35
2022-08-14T21:02:30.469Z,9.07
2022-08-14T21:07:41.937Z,21.77
2022-08-14T21:12:55.564Z,10.50
2022-08-14T21:18:13.932Z,10.50
2022-08-14T21:23:21.681Z,9.75
2022-08-14T21:28:29.407Z,11.57
2022-08-14T21:33:42.838Z,10.23
2022-08-14T21:38:46.910Z,10.95
2022-08-14T21:44:18.316Z,10.88
2022-08-14T21:49:37.561Z,9.90
2022-08-14T21:54:50.084Z,10.50
2022-08-14T21:59:54.194Z,11.52
2022-08-14T22:04:59.407Z,11.18
2022-08-14T22:10:05.064Z,10.35
2022-08-14T22:15:13.401Z,10.63
2022-08-14T22:20:20.549Z,10.82
2022-08-14T22:25:33.256Z,10.52
2022-08-14T22:30:39.075Z,10.30
2022-08-14T22:35:46.937Z,9.52
2022-08-14T22:41:26.797Z,11.20
2022-08-14T22:46:24.405Z,9.48
2022-08-14T22:51:48.315Z,9.05
2022-08-14T22:56:53.444Z,10.40
2022-08-14T23:02:03.750Z,10.10
2022-08-14T23:07:22.189Z,9.38
2022-08-14T23:12:29.447Z,9.50
2022-08-14T23:17:40.344Z,10.27
2022-08-14T23:22:46.684Z,8.77
2022-08-14T23:28:03.230Z,8.35
2022-08-14T23:33:15.813Z,9.90
2022-08-14T23:38:31.035Z,11.65
2022-08-14T23:43:35.251Z,10.98
2022-08-14T23:48:44.488Z,11.68
2022-08-14T23:53:53.325Z,11.27
2022-08-14T23:59:01.035Z,10.68
